Time;durP1;ratioP1;P1;durP2;ratioP2;P2;SDS_P1;SDS_P2;PMS_P1;PMS_P2;Temp;Humidity;BMP_temperature;BMP_pressure;BME280_temperature;BME280_humidity;BME280_pressure;Samples;Min_cycle;Max_cycle;Signal;HPM_P1;HPM_P2
2023/05/26 00:00:54;;;;;;;8.47;7.20;;;;;;;9.34;93.22;98094.28;6231608;28;20841;-89
2023/05/26 00:03:57;;;;;;;8.97;7.73;;;;;;;9.79;93.05;98179.03;6230590;28;20231;-88
2023/05/26 00:06:59;;;;;;;8.63;7.67;;;;;;;10.12;93.07;98231.84;6227399;28;20593;-88
2023/05/26 00:10:01;;;;;;;7.87;7.07;;;;;;;9.62;92.98;98184.16;6196216;28;20239;-88
2023/05/26 00:13:04;;;;;;;7.87;7.07;;;;;;;9.75;93.22;98169.84;6231283;28;20227;-88
2023/05/26 00:16:07;;;;;;;9.07;7.63;;;;;;;10.12;92.86;98241.66;6212971;28;20264;-88
2023/05/26 00:19:11;;;;;;;11.53;9.17;;;;;;;9.32;93.68;98099.00;6212838;28;20274;-88
2023/05/26 00:22:15;;;;;;;12.57;9.03;;;;;;;10.06;94.20;98212.25;6214637;28;20547;-88
2023/05/26 00:25:17;;;;;;;12.73;10.90;;;;;;;8.94;94.83;98036.28;6207822;28;20235;-88
2023/05/26 00:28:19;;;;;;;12.73;10.73;;;;;;;10.14;95.80;98218.28;6228348;28;20232;-88
2023/05/26 00:31:22;;;;;;;15.87;11.97;;;;;;;9.51;96.17;98107.78;6213348;28;20232;-89
2023/05/26 00:34:25;;;;;;;17.03;11.17;;;;;;;8.93;95.79;98010.75;6212512;28;20232;-88
2023/05/26 00:37:27;;;;;;;14.17;11.40;;;;;;;8.29;96.09;97932.38;6212514;28;20228;-88
2023/05/26 00:40:32;;;;;;;14.80;11.57;;;;;;;10.06;96.45;98172.31;6229254;28;20250;-88
2023/05/26 00:43:34;;;;;;;16.23;12.40;;;;;;;9.15;96.45;98053.59;6226062;28;20228;-88
2023/05/26 00:46:37;;;;;;;15.80;11.47;;;;;;;9.20;96.27;98055.59;6209235;28;20248;-89
2023/05/26 00:49:39;;;;;;;14.60;11.10;;;;;;;10.15;96.36;98185.28;6210958;28;20235;-89
2023/05/26 00:52:43;;;;;;;15.03;11.90;;;;;;;9.23;95.96;98044.53;6229100;28;20244;-89
2023/05/26 00:55:51;;;;;;;15.57;12.00;;;;;;;10.68;95.81;98254.63;6212499;28;20247;-89
2023/05/26 00:58:55;;;;;;;13.97;10.87;;;;;;;10.90;95.52;98288.75;6228505;28;20229;-88
2023/05/26 01:01:58;;;;;;;15.63;12.57;;;;;;;9.89;95.42;98143.91;6229421;28;20239;-88
2023/05/26 01:05:01;;;;;;;14.77;11.83;;;;;;;9.63;94.90;98097.19;6201261;28;20234;-89
2023/05/26 01:08:03;;;;;;;14.82;10.93;;;;;;;8.78;94.50;98002.34;6174203;28;1502279;-88
2023/05/26 01:11:14;;;;;;;13.10;11.33;;;;;;;10.31;94.61;98198.03;6183526;28;20236;-88
2023/05/26 01:14:25;;;;;;;17.60;12.47;;;;;;;10.64;94.20;98247.31;6203589;28;20727;-88
2023/05/26 01:17:32;;;;;;;16.23;10.60;;;;;;;10.52;94.34;98228.66;6197057;28;20251;-88
2023/05/26 01:20:40;;;;;;;13.57;9.70;;;;;;;10.82;94.26;98285.38;6213989;28;20789;-89
2023/05/26 01:24:15;;;;;;;12.40;10.70;;;;;;;10.84;94.07;98293.97;6197638;28;20239;-88
2023/05/26 01:27:44;;;;;;;13.83;11.67;;;;;;;10.92;94.22;98302.66;6200782;28;20232;-88
2023/05/26 01:30:48;;;;;;;16.23;13.47;;;;;;;10.96;93.93;98298.50;6194715;28;20326;-88
2023/05/26 01:33:51;;;;;;;19.37;13.60;;;;;;;10.43;93.10;98222.00;6214469;28;20239;-89
2023/05/26 01:36:54;;;;;;;14.40;11.37;;;;;;;11.14;92.98;98337.63;6196392;28;20228;-88
2023/05/26 01:39:57;;;;;;;17.37;13.40;;;;;;;9.08;92.70;97999.72;6216079;28;20274;-88
2023/05/26 01:43:51;;;;;;;17.83;12.57;;;;;;;9.77;92.47;98133.22;6204826;28;20240;-89
2023/05/26 01:46:53;;;;;;;16.80;12.70;;;;;;;10.11;91.97;98179.63;6088484;29;20422;-89
2023/05/26 01:50:00;;;;;;;12.20;10.53;;;;;;;9.53;91.93;98089.75;6089454;28;20244;-88
2023/05/26 01:53:07;;;;;;;17.93;13.23;;;;;;;9.46;92.22;98135.03;6088971;28;20231;-88
2023/05/26 01:56:11;;;;;;;13.77;11.27;;;;;;;11.03;92.39;98345.34;6117924;28;20442;-89
2023/05/26 01:59:16;;;;;;;11.73;10.27;;;;;;;8.95;92.17;98035.22;6120425;28;20773;-88
2023/05/26 02:02:18;;;;;;;11.23;9.10;;;;;;;10.19;92.28;98218.41;6085026;28;20424;-89
2023/05/26 02:05:21;;;;;;;14.20;10.83;;;;;;;9.42;92.40;98139.19;6071913;29;20714;-89
2023/05/26 02:08:23;;;;;;;13.00;10.03;;;;;;;9.03;92.39;98079.31;6094958;28;20332;-89
2023/05/26 02:11:25;;;;;;;13.47;10.90;;;;;;;9.99;92.62;98224.00;6111256;28;20266;-89
2023/05/26 02:14:28;;;;;;;17.70;12.63;;;;;;;9.90;92.66;98214.69;6111603;28;20714;-89
2023/05/26 02:17:30;;;;;;;19.77;12.53;;;;;;;9.10;93.08;98056.13;6123983;28;20821;-89
2023/05/26 02:20:33;;;;;;;17.67;13.40;;;;;;;8.66;92.50;98001.44;6112410;28;20237;-89
2023/05/26 02:23:35;;;;;;;18.73;12.83;;;;;;;9.57;92.87;98128.97;6212858;28;20230;-89
2023/05/26 02:26:37;;;;;;;19.40;14.43;;;;;;;10.53;92.86;98294.19;6216497;28;20738;-88
2023/05/26 02:29:40;;;;;;;17.50;13.90;;;;;;;10.64;93.02;98279.28;6201826;28;20600;-88
2023/05/26 02:32:43;;;;;;;17.30;14.30;;;;;;;9.10;92.17;98037.50;6234182;28;20277;-88
2023/05/26 02:35:46;;;;;;;20.03;14.63;;;;;;;9.96;91.90;98152.63;6215944;28;20232;-88
2023/05/26 02:38:49;;;;;;;18.00;14.40;;;;;;;10.13;92.36;98216.66;6201218;28;20255;-88
2023/05/26 02:41:53;;;;;;;18.67;14.63;;;;;;;9.15;91.86;98042.16;6200702;28;20278;-89
2023/05/26 02:44:55;;;;;;;20.20;14.10;;;;;;;10.08;92.44;98196.84;6237009;28;20259;-89
2023/05/26 02:47:58;;;;;;;17.00;14.23;;;;;;;8.83;92.61;97991.88;6208243;28;20639;-89
2023/05/26 02:51:00;;;;;;;21.77;15.40;;;;;;;10.45;92.49;98242.06;6217200;28;20277;-88
2023/05/26 02:54:02;;;;;;;21.33;15.90;;;;;;;9.49;92.22;98085.91;6199606;28;20440;-89
2023/05/26 02:57:05;;;;;;;20.80;15.00;;;;;;;9.87;92.45;98160.09;6216766;28;20224;-89
2023/05/26 03:00:12;;;;;;;22.53;15.17;;;;;;;9.49;92.39;98092.03;6233233;28;20745;-88
2023/05/26 03:03:15;;;;;;;22.40;16.57;;;;;;;10.25;92.71;98217.56;6233478;28;20247;-89
2023/05/26 03:06:17;;;;;;;22.33;15.03;;;;;;;9.78;92.55;98153.47;6232041;28;20512;-89
2023/05/26 03:09:20;;;;;;;17.90;13.83;;;;;;;10.12;92.35;98199.88;6218083;28;20235;-88
2023/05/26 03:12:22;;;;;;;20.77;15.73;;;;;;;8.68;92.29;98028.59;6218946;28;20227;-88
2023/05/26 03:15:33;;;;;;;20.10;16.10;;;;;;;10.84;92.92;98325.94;6226560;28;20308;-88
2023/05/26 03:18:37;;;;;;;20.47;14.33;;;;;;;10.81;92.74;98321.06;6211971;28;20224;-89
2023/05/26 03:21:40;;;;;;;18.47;14.80;;;;;;;10.79;92.84;98325.81;6234885;28;20247;-88
2023/05/26 03:24:51;;;;;;;18.60;14.13;;;;;;;8.59;92.41;98009.50;6232653;28;20236;-89
2023/05/26 03:27:56;;;;;;;20.03;14.53;;;;;;;10.81;92.98;98323.72;6215340;28;20236;-88
2023/05/26 03:30:58;;;;;;;22.83;16.50;;;;;;;10.42;92.77;98249.69;6213931;28;20259;-88
2023/05/26 03:34:03;;;;;;;19.80;14.57;;;;;;;9.48;92.78;98097.56;6230525;28;20354;-89
2023/05/26 03:37:06;;;;;;;18.13;14.50;;;;;;;9.07;92.38;98039.81;6204887;28;20255;-88
2023/05/26 03:40:08;;;;;;;17.53;14.07;;;;;;;8.73;92.16;97975.63;6199398;28;20243;-88
2023/05/26 03:43:11;;;;;;;21.03;15.07;;;;;;;9.85;92.32;98166.66;6203764;28;20239;-88
2023/05/26 03:46:18;;;;;;;18.67;13.47;;;;;;;9.56;92.44;98139.84;6214386;28;20235;-88
2023/05/26 03:49:21;;;;;;;18.70;12.97;;;;;;;9.21;92.54;98059.88;6229278;28;20235;-88
2023/05/26 03:52:25;;;;;;;21.13;14.40;;;;;;;10.41;92.40;98237.41;6228373;28;20236;-88
2023/05/26 03:55:27;;;;;;;23.33;14.50;;;;;;;9.02;92.60;98048.47;6225770;28;20265;-89
2023/05/26 03:58:30;;;;;;;17.03;12.57;;;;;;;8.85;92.50;98010.22;6214655;28;20331;-89
2023/05/26 04:01:33;;;;;;;17.63;13.37;;;;;;;10.12;92.77;98212.38;6229545;28;20282;-88
2023/05/26 04:04:35;;;;;;;21.13;13.90;;;;;;;9.20;92.96;98056.41;6212766;28;20239;-89
2023/05/26 04:07:38;;;;;;;16.47;13.33;;;;;;;10.89;93.08;98340.44;6231169;28;20318;-88
2023/05/26 04:10:41;;;;;;;18.60;14.37;;;;;;;9.42;92.80;98087.84;6216250;28;20251;-89
2023/05/26 04:13:44;;;;;;;17.43;13.93;;;;;;;9.65;92.74;98135.00;6214570;28;20244;-88
2023/05/26 04:16:48;;;;;;;15.60;12.70;;;;;;;9.14;92.97;98067.13;6193112;28;20232;-88
2023/05/26 04:19:51;;;;;;;18.67;13.00;;;;;;;10.67;93.06;98290.31;6181103;28;20224;-89
2023/05/26 04:22:53;;;;;;;15.50;11.57;;;;;;;9.28;92.44;98064.06;6181083;28;20259;-89
2023/05/26 04:25:55;;;;;;;13.50;10.60;;;;;;;9.91;93.09;98153.28;6215122;28;20326;-89
2023/05/26 04:29:12;;;;;;;10.47;9.30;;;;;;;9.49;92.35;98118.63;6190088;28;20620;-88
2023/05/26 04:32:21;;;;;;;9.77;8.77;;;;;;;10.95;92.97;98337.69;6212909;28;20719;-88
2023/05/26 04:35:38;;;;;;;13.87;10.10;;;;;;;8.49;92.76;97959.56;6213791;28;20239;-88
2023/05/26 04:38:42;;;;;;;12.53;9.00;;;;;;;10.87;93.37;98353.97;6182155;28;20242;-88
2023/05/26 04:41:46;;;;;;;10.67;9.27;;;;;;;9.28;93.17;98080.03;6180194;28;20780;-88
2023/05/26 04:44:48;;;;;;;12.03;9.97;;;;;;;10.88;93.60;98328.94;6180736;28;20236;-88
2023/05/26 04:47:51;;;;;;;12.53;11.00;;;;;;;10.89;93.93;98327.13;6211019;28;20227;-88
2023/05/26 04:50:53;;;;;;;12.20;10.53;;;;;;;9.78;93.31;98159.59;6197007;28;20232;-89
2023/05/26 04:53:56;;;;;;;13.10;10.77;;;;;;;9.99;93.76;98192.88;6214061;28;20232;-89
2023/05/26 04:56:58;;;;;;;12.50;10.47;;;;;;;8.40;93.68;97914.94;6201467;28;20243;-88
2023/05/26 05:00:15;;;;;;;10.63;9.53;;;;;;;9.12;94.22;98040.78;6194722;28;20313;-88
2023/05/26 05:03:23;;;;;;;11.87;10.40;;;;;;;9.52;93.93;98078.28;6185294;28;20241;-89
2023/05/26 05:06:35;;;;;;;11.83;9.37;;;;;;;10.42;94.01;98228.38;6192312;28;20236;-88
2023/05/26 05:09:38;;;;;;;13.60;11.27;;;;;;;9.16;94.48;98023.34;6190749;28;20378;-88
2023/05/26 05:12:40;;;;;;;13.80;10.67;;;;;;;10.76;94.73;98264.16;6209872;28;20227;-88
2023/05/26 05:15:45;;;;;;;12.43;10.47;;;;;;;9.56;94.46;98049.41;6218174;28;20231;-88
2023/05/26 05:18:48;;;;;;;12.90;10.20;;;;;;;10.40;94.57;98187.84;6219146;28;20228;-89
2023/05/26 05:21:51;;;;;;;16.97;12.33;;;;;;;9.79;95.13;98065.41;6200084;28;20231;-89
2023/05/26 05:24:54;;;;;;;16.33;12.47;;;;;;;10.41;94.27;98126.38;6215288;28;20235;-89
2023/05/26 05:27:56;;;;;;;15.60;11.10;;;;;;;11.25;93.50;98219.47;6214961;28;20228;-88
2023/05/26 05:30:58;;;;;;;17.47;12.40;;;;;;;10.22;89.49;98002.31;6216056;28;20639;-88
2023/05/26 05:34:02;;;;;;;13.43;10.10;;;;;;;11.42;88.49;98155.53;6217548;28;20230;-89
2023/05/26 05:37:04;;;;;;;12.40;9.93;;;;;;;12.75;87.70;98340.56;6203282;28;20311;-88
2023/05/26 05:40:08;;;;;;;13.77;10.83;;;;;;;12.46;83.78;98231.00;6215707;28;20640;-89
2023/05/26 05:43:10;;;;;;;15.03;10.03;;;;;;;11.70;82.74;98074.69;6217742;28;20241;-89
2023/05/26 05:46:13;;;;;;;14.17;9.33;;;;;;;11.91;82.47;98087.38;6218997;28;20373;-89
2023/05/26 05:49:27;;;;;;;11.20;9.13;;;;;;;12.46;80.86;98172.19;6218130;28;20370;-89
2023/05/26 05:52:30;;;;;;;13.30;8.83;;;;;;;11.95;80.43;98096.53;6215360;28;20232;-89
2023/05/26 05:55:33;;;;;;;12.13;8.87;;;;;;;12.65;79.12;98141.50;6215832;28;20240;-89
2023/05/26 05:58:37;;;;;;;12.37;8.30;;;;;;;12.13;80.77;98091.00;6217744;28;20252;-89
2023/05/26 06:01:39;;;;;;;13.23;10.07;;;;;;;13.23;78.32;98226.94;6215648;28;20243;-89
2023/05/26 06:04:43;;;;;;;12.43;9.53;;;;;;;13.20;78.18;98203.28;6194160;28;20598;-89
2023/05/26 06:07:45;;;;;;;11.10;9.13;;;;;;;13.08;76.96;98182.81;6197946;28;20258;-89
2023/05/26 06:10:48;;;;;;;10.63;8.77;;;;;;;12.87;76.97;98138.94;6199759;28;20313;-89
2023/05/26 06:13:51;;;;;;;14.43;9.50;;;;;;;12.85;75.85;98121.50;6216828;28;20281;-89
2023/05/26 06:16:53;;;;;;;13.27;9.87;;;;;;;14.61;74.82;98350.09;6186254;28;20242;-89
2023/05/26 06:19:56;;;;;;;9.23;8.33;;;;;;;13.57;74.98;98184.84;6221964;28;20347;-90
2023/05/26 06:22:58;;;;;;;10.97;8.93;;;;;;;13.05;74.03;98108.44;6215066;28;20264;-90
2023/05/26 06:26:02;;;;;;;9.20;7.53;;;;;;;13.13;74.19;98104.50;6202121;28;20342;-91
2023/05/26 06:29:05;;;;;;;11.17;8.27;;;;;;;13.41;74.03;98124.97;6199353;28;20251;-91
2023/05/26 06:32:08;;;;;;;10.93;8.50;;;;;;;13.00;73.79;98054.84;6216242;28;20231;-92
2023/05/26 06:35:10;;;;;;;11.63;7.40;;;;;;;14.01;72.88;98203.59;6184642;28;20239;-91
2023/05/26 06:38:12;;;;;;;11.47;8.50;;;;;;;13.69;71.15;98126.63;6198476;28;20237;-91
2023/05/26 06:41:15;;;;;;;10.30;8.20;;;;;;;14.12;71.21;98163.25;6187417;28;20240;-91
2023/05/26 06:44:17;;;;;;;10.57;8.30;;;;;;;13.86;69.23;98095.22;6200902;28;20228;-92
2023/05/26 06:47:23;;;;;;;10.10;7.50;;;;;;;13.62;70.36;98067.13;6203712;28;20289;-91
2023/05/26 06:50:41;;;;;;;12.77;7.90;;;;;;;14.47;69.34;98186.09;6210377;28;20712;-91
2023/05/26 06:53:43;;;;;;;11.23;8.47;;;;;;;14.02;69.19;98087.31;6200707;28;20267;-91
2023/05/26 06:56:46;;;;;;;13.40;8.77;;;;;;;13.39;69.13;98028.06;6205624;28;20235;-92
2023/05/26 06:59:50;;;;;;;12.13;8.40;;;;;;;13.88;70.40;98097.63;6215187;28;20382;-91
2023/05/26 07:02:53;;;;;;;10.93;8.00;;;;;;;14.67;69.03;98188.97;6183091;28;20240;-92
2023/05/26 07:06:00;;;;;;;10.33;8.43;;;;;;;14.36;68.91;98147.66;6215324;28;20548;-90
2023/05/26 07:09:04;;;;;;;11.50;8.30;;;;;;;14.60;68.59;98179.53;6220400;28;20228;-91
2023/05/26 07:12:10;;;;;;;11.70;8.80;;;;;;;14.58;68.63;98157.53;6224397;28;20204;-90
2023/05/26 07:15:25;;;;;;;9.90;8.43;;;;;;;15.23;65.86;98247.66;6224647;28;20240;-89
2023/05/26 07:18:29;;;;;;;10.90;8.10;;;;;;;15.35;65.58;98240.19;6219759;28;20682;-89
2023/05/26 07:21:32;;;;;;;10.23;7.50;;;;;;;15.26;66.68;98184.56;6234426;28;20232;-90
2023/05/26 07:24:35;;;;;;;7.67;6.80;;;;;;;14.53;66.88;98069.84;6235636;28;20375;-90
2023/05/26 07:27:37;;;;;;;10.07;7.83;;;;;;;14.93;64.49;98135.53;6214869;28;20239;-90
2023/05/26 07:30:40;;;;;;;11.47;7.93;;;;;;;15.89;62.96;98231.13;6231982;28;20766;-89
2023/05/26 07:33:44;;;;;;;10.83;7.53;;;;;;;16.73;64.70;98378.00;6211416;28;20317;-90
2023/05/26 07:36:48;;;;;;;12.47;7.43;;;;;;;15.35;63.22;98177.66;6217623;28;20240;-90
2023/05/26 07:39:50;;;;;;;8.17;6.70;;;;;;;15.34;63.66;98165.28;6209334;28;20240;-89
2023/05/26 07:42:53;;;;;;;10.27;7.50;;;;;;;15.46;61.86;98163.19;6231397;28;20236;-90
2023/05/26 07:45:55;;;;;;;9.53;7.57;;;;;;;15.73;62.89;98216.81;6213523;28;20242;-90
2023/05/26 07:48:58;;;;;;;11.27;7.40;;;;;;;15.35;62.53;98138.19;6213763;28;20240;-90
2023/05/26 07:52:00;;;;;;;9.30;7.60;;;;;;;15.66;61.73;98198.25;6229839;28;20224;-90
2023/05/26 07:55:02;;;;;;;10.80;6.77;;;;;;;16.17;63.84;98287.13;6216145;28;20235;-89
2023/05/26 07:58:06;;;;;;;10.10;7.03;;;;;;;15.62;63.37;98231.25;6232072;28;20274;-89
2023/05/26 08:01:08;;;;;;;10.50;7.97;;;;;;;15.21;61.38;98127.09;6216437;28;20322;-89
2023/05/26 08:04:11;;;;;;;6.90;6.20;;;;;;;15.09;62.44;98106.94;6214234;28;20627;-90
2023/05/26 08:07:13;;;;;;;7.33;5.80;;;;;;;15.94;63.10;98213.13;6231291;28;20563;-90
2023/05/26 08:10:20;;;;;;;10.47;7.03;;;;;;;16.05;63.28;98216.66;6229222;28;20798;-91
2023/05/26 08:13:22;;;;;;;9.50;6.90;;;;;;;16.98;62.48;98418.44;6227469;28;20240;-89
2023/05/26 08:16:25;;;;;;;10.30;6.83;;;;;;;17.00;62.53;98364.34;6225085;28;20318;-89
2023/05/26 08:19:28;;;;;;;9.97;6.63;;;;;;;17.14;62.20;98402.31;6216363;28;20243;-90
2023/05/26 08:22:30;;;;;;;8.03;6.77;;;;;;;15.47;61.40;98143.34;6230644;28;20231;-90
2023/05/26 08:25:32;;;;;;;8.23;6.70;;;;;;;15.95;62.27;98192.44;6214237;28;20616;-90
2023/05/26 08:28:35;;;;;;;9.03;6.93;;;;;;;15.90;60.62;98182.47;6226347;28;20236;-90
2023/05/26 08:31:37;;;;;;;9.20;6.80;;;;;;;16.04;61.75;98209.66;6213580;28;20236;-90
2023/05/26 08:34:42;;;;;;;8.47;6.77;;;;;;;16.16;61.36;98234.44;6217152;28;20591;-90
2023/05/26 08:37:44;;;;;;;9.47;6.57;;;;;;;15.36;60.73;98136.31;6213373;28;20791;-90
2023/05/26 08:40:50;;;;;;;9.67;6.27;;;;;;;15.69;62.05;98140.50;6224496;28;20365;-91
2023/05/26 08:43:59;;;;;;;7.90;6.10;;;;;;;16.34;62.49;98243.09;6216464;28;20323;-90
2023/05/26 08:47:11;;;;;;;7.70;6.50;;;;;;;16.40;62.44;98236.63;6189857;28;20239;-90
2023/05/26 08:50:15;;;;;;;9.20;6.17;;;;;;;16.25;60.55;98156.75;6215128;28;20228;-90
2023/05/26 08:53:20;;;;;;;6.83;6.13;;;;;;;16.65;59.61;98212.50;6212424;28;20631;-91
2023/05/26 08:56:22;;;;;;;8.73;6.10;;;;;;;16.11;59.96;98110.81;6216687;28;20389;-91
2023/05/26 08:59:27;;;;;;;10.23;5.67;;;;;;;16.36;59.50;98179.91;6234579;28;20234;-90
2023/05/26 09:02:30;;;;;;;7.97;6.53;;;;;;;16.98;58.95;98248.03;6205173;28;20232;-90
2023/05/26 09:05:33;;;;;;;8.00;5.83;;;;;;;18.00;60.12;98409.66;6225607;28;20224;-90
2023/05/26 09:08:36;;;;;;;10.37;5.77;;;;;;;17.12;59.42;98262.59;6214828;28;20255;-90
2023/05/26 09:11:46;;;;;;;9.07;6.23;;;;;;;16.26;61.06;98182.59;6227616;28;20250;-90
2023/05/26 09:14:58;;;;;;;7.80;6.30;;;;;;;16.06;58.50;98136.84;6228498;28;20239;-90
2023/05/26 09:18:06;;;;;;;8.13;5.90;;;;;;;16.92;60.96;98276.84;6232401;28;20262;-89
2023/05/26 09:21:08;;;;;;;8.10;5.70;;;;;;;15.31;60.65;98020.84;6213825;28;20244;-89
2023/05/26 09:24:16;;;;;;;9.23;6.27;;;;;;;16.41;62.32;98168.38;6227426;28;20818;-90
2023/05/26 09:27:22;;;;;;;9.23;5.87;;;;;;;17.82;61.15;98370.56;6206452;28;20286;-90
2023/05/26 09:30:28;;;;;;;9.07;6.23;;;;;;;17.14;60.13;98243.47;6212903;28;20613;-89
2023/05/26 09:33:31;;;;;;;7.23;5.57;;;;;;;16.62;60.60;98174.56;6218327;28;20327;-90
2023/05/26 09:36:35;;;;;;;9.90;6.00;;;;;;;16.60;61.67;98156.00;6219880;28;20240;-90
2023/05/26 09:39:37;;;;;;;7.87;5.10;;;;;;;17.50;57.72;98245.03;6231324;28;20223;-90
2023/05/26 09:42:52;;;;;;;10.40;5.53;;;;;;;17.16;57.73;98193.66;6228380;28;20398;-90
2023/05/26 09:45:55;;;;;;;8.13;5.57;;;;;;;16.64;57.68;98129.34;6227764;28;20636;-90
2023/05/26 09:48:58;;;;;;;9.03;5.60;;;;;;;17.39;58.05;98274.94;6232720;28;20232;-90
2023/05/26 09:52:00;;;;;;;8.23;5.83;;;;;;;16.60;59.65;98198.22;6220796;28;20399;-90
2023/05/26 09:55:14;;;;;;;8.97;5.90;;;;;;;16.61;61.74;98205.22;6228444;28;20279;-90
2023/05/26 09:58:18;;;;;;;6.87;5.20;;;;;;;16.43;62.02;98113.22;6199919;28;20596;-90
2023/05/26 10:01:24;;;;;;;8.40;5.90;;;;;;;17.44;60.45;98239.94;6217285;28;20240;-90
2023/05/26 10:04:28;;;;;;;8.30;6.07;;;;;;;17.95;58.66;98308.03;6218668;28;20355;-89
2023/05/26 10:07:31;;;;;;;7.90;5.57;;;;;;;17.29;56.75;98195.00;6220513;28;20582;-90
2023/05/26 10:10:34;;;;;;;7.33;5.70;;;;;;;17.30;57.13;98193.13;6217839;28;20232;-90
2023/05/26 10:13:38;;;;;;;7.50;5.83;;;;;;;16.60;57.33;98117.50;6233544;28;20232;-89
2023/05/26 10:16:42;;;;;;;9.00;6.10;;;;;;;17.71;55.22;98264.66;6236226;28;20244;-90
2023/05/26 10:19:46;;;;;;;8.10;5.50;;;;;;;18.34;59.92;98334.31;6236512;28;20224;-90
2023/05/26 10:23:02;;;;;;;9.27;5.40;;;;;;;19.00;54.80;98373.69;6235550;28;20236;-90
2023/05/26 10:26:22;;;;;;;7.30;5.43;;;;;;;17.95;52.47;98165.16;6218066;28;20233;-89
2023/05/26 10:29:46;;;;;;;8.17;5.50;;;;;;;18.72;52.28;98322.03;6237990;28;20232;-89
2023/05/26 10:32:55;;;;;;;7.90;5.30;;;;;;;17.48;53.77;98160.19;6223211;28;20617;-90
2023/05/26 10:35:58;;;;;;;6.87;5.63;;;;;;;17.58;53.42;98164.72;6221127;28;20216;-89
2023/05/26 10:39:00;;;;;;;7.97;5.47;;;;;;;17.70;53.09;98176.00;6211931;28;20235;-90
2023/05/26 10:42:16;;;;;;;9.07;6.10;;;;;;;18.55;53.81;98294.56;6214803;28;20509;-90
2023/05/26 10:45:19;;;;;;;9.33;5.50;;;;;;;18.36;55.38;98250.41;6218601;28;20582;-90
2023/05/26 10:48:25;;;;;;;8.23;5.80;;;;;;;18.98;53.69;98319.16;6234409;28;20248;-90
2023/05/26 10:51:34;;;;;;;9.17;5.97;;;;;;;18.19;53.34;98184.16;6230156;28;20225;-91
2023/05/26 10:54:36;;;;;;;9.30;6.00;;;;;;;19.66;50.61;98358.94;6213522;28;20255;-90
2023/05/26 10:57:38;;;;;;;6.63;4.97;;;;;;;18.96;50.31;98272.72;6233095;28;20278;-89
2023/05/26 11:00:43;;;;;;;8.40;5.43;;;;;;;18.90;49.82;98263.06;6227648;28;20238;-89
2023/05/26 11:03:48;;;;;;;8.20;5.20;;;;;;;19.26;50.99;98277.06;6214890;28;20279;-89
2023/05/26 11:06:59;;;;;;;7.83;5.53;;;;;;;18.42;51.22;98160.25;6196983;28;20243;-90
2023/05/26 11:10:06;;;;;;;7.00;5.17;;;;;;;19.14;50.94;98257.72;6231096;28;20310;-89
2023/05/26 11:13:09;;;;;;;7.27;5.63;;;;;;;19.62;49.72;98360.56;6212531;28;20239;-90
2023/05/26 11:16:22;;;;;;;9.10;5.00;;;;;;;19.48;50.62;98363.88;6233421;28;20227;-90
2023/05/26 11:19:32;;;;;;;12.00;5.63;;;;;;;18.69;52.11;98281.28;6233109;28;20232;-90
2023/05/26 11:22:35;;;;;;;7.90;5.10;;;;;;;19.01;52.09;98319.41;6212800;28;20593;-90
2023/05/26 11:25:47;;;;;;;9.03;5.63;;;;;;;17.77;53.13;98058.78;6216476;28;20236;-89
2023/05/26 11:28:50;;;;;;;7.67;5.67;;;;;;;19.25;53.54;98299.78;6203276;28;20621;-89
2023/05/26 11:31:53;;;;;;;7.30;5.30;;;;;;;19.05;51.60;98225.94;6215886;28;20389;-89
2023/05/26 11:34:56;;;;;;;6.30;5.13;;;;;;;18.70;49.30;98159.53;6229695;28;20657;-90
2023/05/26 11:37:59;;;;;;;5.83;5.23;;;;;;;19.66;50.02;98296.75;6213017;28;20236;-90
2023/05/26 11:41:09;;;;;;;9.60;5.30;;;;;;;19.99;50.12;98349.13;6219382;28;20224;-90
2023/05/26 11:44:15;;;;;;;9.07;5.83;;;;;;;18.80;49.28;98148.66;6229731;28;20712;-89
2023/05/26 11:47:21;;;;;;;8.37;5.13;;;;;;;19.85;49.52;98300.31;6214686;28;20239;-89
2023/05/26 11:50:24;;;;;;;9.93;5.60;;;;;;;19.96;50.23;98260.47;6214311;28;20225;-89
2023/05/26 11:53:30;;;;;;;7.43;5.40;;;;;;;20.31;48.03;98334.97;6199511;28;20805;-89
2023/05/26 11:56:34;;;;;;;8.43;5.80;;;;;;;20.17;47.78;98324.03;6211273;28;20262;-89
2023/05/26 11:59:36;;;;;;;6.43;5.50;;;;;;;18.27;49.80;98083.78;6230388;28;20238;-89
2023/05/26 12:02:39;;;;;;;7.87;5.37;;;;;;;19.10;51.30;98167.56;6209952;28;20239;-90
2023/05/26 12:05:41;;;;;;;10.40;6.10;;;;;;;19.01;46.59;98175.47;6230509;28;20611;-90
2023/05/26 12:09:08;;;;;;;9.03;5.30;;;;;;;19.26;46.68;98264.38;6230200;28;20241;-90
2023/05/26 12:12:11;;;;;;;6.83;5.20;;;;;;;19.74;46.58;98323.16;6198622;28;20231;-89
2023/05/26 12:15:20;;;;;;;6.17;5.17;;;;;;;19.59;46.34;98295.16;6197996;28;20234;-89
2023/05/26 12:18:23;;;;;;;9.37;5.87;;;;;;;19.29;47.70;98263.81;6211822;28;20598;-89
2023/05/26 12:21:26;;;;;;;7.30;5.40;;;;;;;18.88;47.95;98203.16;6209055;28;20227;-89
2023/05/26 12:24:35;;;;;;;6.00;4.80;;;;;;;18.06;51.28;98095.78;6207653;28;20603;-90
2023/05/26 12:27:39;;;;;;;7.00;5.67;;;;;;;18.37;49.15;98142.22;6216567;28;20597;-90
2023/05/26 12:30:41;;;;;;;7.83;5.43;;;;;;;18.55;50.13;98154.25;6217690;28;20606;-90
2023/05/26 12:33:47;;;;;;;7.43;5.80;;;;;;;19.70;50.69;98325.59;6214936;28;20228;-90
2023/05/26 12:36:50;;;;;;;7.70;5.80;;;;;;;19.67;52.00;98323.50;6195967;28;20235;-90
2023/05/26 12:39:53;;;;;;;5.53;4.73;;;;;;;18.97;51.73;98217.66;6213735;28;20723;-90
2023/05/26 12:42:57;;;;;;;6.77;5.00;;;;;;;19.79;48.81;98258.19;6224725;28;20227;-91
2023/05/26 12:45:59;;;;;;;8.43;5.93;;;;;;;20.02;47.39;98248.47;6212403;28;20617;-90
2023/05/26 12:49:02;;;;;;;8.83;5.67;;;;;;;19.85;47.22;98208.38;6216592;28;20750;-91
2023/05/26 12:52:05;;;;;;;7.83;5.53;;;;;;;19.75;48.20;98203.09;6231738;28;20235;-90
2023/05/26 12:55:08;;;;;;;6.10;5.07;;;;;;;19.43;46.64;98190.19;6230949;28;20232;-90
2023/05/26 12:58:10;;;;;;;7.13;5.27;;;;;;;19.19;47.27;98182.88;6227770;28;20604;-91
2023/05/26 13:01:14;;;;;;;6.60;5.10;;;;;;;19.56;50.28;98265.19;6227148;28;20267;-90
2023/05/26 13:04:17;;;;;;;6.70;5.20;;;;;;;17.96;52.25;98025.78;6222127;28;20240;-90
2023/05/26 13:07:21;;;;;;;5.13;4.60;;;;;;;18.15;53.34;98050.16;6220833;28;20223;-90
2023/05/26 13:10:24;;;;;;;11.10;6.20;;;;;;;17.94;52.77;98039.53;6203669;28;20228;-90
2023/05/26 13:13:27;;;;;;;10.30;5.03;;;;;;;18.28;53.08;98052.22;6199869;28;20327;-91
2023/05/26 13:16:29;;;;;;;5.70;4.13;;;;;;;18.93;47.96;98090.50;6206473;28;20316;-91
2023/05/26 13:19:32;;;;;;;7.33;4.70;;;;;;;19.41;46.36;98152.66;6216799;28;20223;-90
2023/05/26 13:22:44;;;;;;;6.00;4.57;;;;;;;19.81;46.98;98202.75;6201823;28;20227;-90
2023/05/26 13:25:47;;;;;;;6.63;4.40;;;;;;;20.41;46.92;98277.22;6223234;28;20225;-91
2023/05/26 13:28:50;;;;;;;5.20;4.40;;;;;;;19.16;46.51;98093.50;6227819;28;20227;-90
2023/05/26 13:31:52;;;;;;;6.67;4.77;;;;;;;19.51;48.11;98157.94;6223044;28;20228;-90
2023/05/26 13:34:55;;;;;;;7.07;4.30;;;;;;;20.16;47.44;98241.28;6219932;28;20238;-90
2023/05/26 13:37:57;;;;;;;6.73;4.27;;;;;;;19.28;47.03;98108.22;6201386;28;20326;-90
2023/05/26 13:41:00;;;;;;;7.07;4.23;;;;;;;19.00;46.87;98092.84;6213543;28;20318;-90
2023/05/26 13:44:02;;;;;;;7.87;4.53;;;;;;;19.29;47.69;98169.25;6221157;28;20374;-91
2023/05/26 13:47:05;;;;;;;6.93;4.23;;;;;;;18.66;49.16;98072.09;6224999;28;20373;-90
2023/05/26 13:50:09;;;;;;;5.00;4.20;;;;;;;20.28;45.84;98279.53;6212179;28;20318;-90
2023/05/26 13:53:22;;;;;;;7.10;4.30;;;;;;;20.41;47.71;98285.34;6222863;28;20255;-89
2023/05/26 13:56:25;;;;;;;5.77;4.00;;;;;;;19.93;45.03;98202.34;6221850;28;20231;-90
2023/05/26 13:59:29;;;;;;;6.83;4.53;;;;;;;19.74;45.94;98160.94;6230761;28;20601;-90
2023/05/26 14:02:32;;;;;;;4.67;3.93;;;;;;;19.23;45.69;98069.66;6213316;28;20251;-91
2023/05/26 14:05:35;;;;;;;4.73;3.50;;;;;;;19.77;46.52;98166.56;6207017;28;20220;-90
2023/05/26 14:08:38;;;;;;;4.73;4.17;;;;;;;19.51;44.84;98103.91;6228143;28;20262;-90
2023/05/26 14:11:40;;;;;;;5.27;4.20;;;;;;;18.84;46.51;98023.94;6218230;28;20227;-90
2023/05/26 14:14:43;;;;;;;7.33;4.70;;;;;;;20.29;45.72;98208.06;6218086;28;20362;-90
2023/05/26 14:17:45;;;;;;;6.57;4.30;;;;;;;19.85;45.37;98162.41;6217312;28;20235;-90
2023/05/26 14:21:04;;;;;;;5.87;3.90;;;;;;;20.82;45.72;98285.59;6228806;28;20301;-91